Time;durP1;ratioP1;P1;durP2;ratioP2;P2;SDS_P1;SDS_P2;PMS_P1;PMS_P2;Temp;Humidity;BMP_temperature;BMP_pressure;BME280_temperature;BME280_humidity;BME280_pressure;Samples;Min_cycle;Max_cycle;Signal;HPM_P1;HPM_P2
2022/03/09 00:01:18;;;;;;;;;9.00;8.00;;;;;-1.68;100.00;101331.16;3725314;38;20071;-65
2022/03/09 00:03:46;;;;;;;;;8.00;7.25;;;;;-1.73;100.00;101324.41;3725161;38;19966;-66
2022/03/09 00:06:17;;;;;;;;;7.25;7.25;;;;;-1.69;100.00;101326.78;3725517;37;20187;-65
2022/03/09 00:08:45;;;;;;;;;9.00;8.25;;;;;-1.73;100.00;101327.03;3725589;38;20225;-65
2022/03/09 00:11:14;;;;;;;;;6.50;6.50;;;;;-1.77;100.00;101317.53;3725272;37;20275;-64
2022/03/09 00:13:42;;;;;;;;;9.00;7.25;;;;;-1.75;100.00;101331.59;3725424;37;20313;-68
2022/03/09 00:16:11;;;;;;;;;6.00;5.50;;;;;-1.77;100.00;101329.03;3725290;37;20265;-65
2022/03/09 00:18:40;;;;;;;;;5.00;5.00;;;;;-1.78;100.00;101337.06;3725293;38;20047;-66
2022/03/09 00:21:11;;;;;;;;;1.00;1.00;;;;;-1.76;100.00;101330.72;3725742;38;19938;-65
2022/03/09 00:23:38;;;;;;;;;5.75;5.25;;;;;-1.73;100.00;101327.03;3725701;38;20009;-66
2022/03/09 00:26:08;;;;;;;;;4.00;4.00;;;;;-1.72;100.00;101334.94;3725415;38;19901;-66
2022/03/09 00:28:38;;;;;;;;;7.75;7.00;;;;;-1.67;100.00;101326.69;3725494;37;20192;-65
2022/03/09 00:31:06;;;;;;;;;8.50;6.75;;;;;-1.71;100.00;101335.78;3725615;37;19896;-65
2022/03/09 00:33:37;;;;;;;;;4.75;4.00;;;;;-1.76;100.00;101325.41;3725610;37;19905;-64
2022/03/09 00:36:06;;;;;;;;;5.00;5.00;;;;;-1.98;100.00;101294.87;3725332;37;19920;-66
2022/03/09 00:38:33;;;;;;;;;3.00;3.00;;;;;-1.91;100.00;101305.06;3725316;37;19981;-65
2022/03/09 00:41:02;;;;;;;;;5.00;5.00;;;;;-1.78;100.00;101315.84;3725264;38;19902;-65
2022/03/09 00:43:31;;;;;;;;;4.00;3.25;;;;;-1.82;100.00;101328.41;3725383;38;20184;-64
2022/03/09 00:45:58;;;;;;;;;1.75;1.75;;;;;-1.83;100.00;101320.53;3725218;38;20202;-65
2022/03/09 00:48:27;;;;;;;;;1.75;1.50;;;;;-1.92;100.00;101310.44;3725862;37;20275;-65
2022/03/09 00:50:55;;;;;;;;;4.00;4.00;;;;;-1.99;100.00;101304.63;3728934;37;19865;-65
2022/03/09 00:53:25;;;;;;;;;2.00;2.00;;;;;-1.97;100.00;101308.03;3726523;37;20211;-61
2022/03/09 00:55:51;;;;;;;;;3.00;3.00;;;;;-1.99;100.00;101315.22;3725862;37;20024;-65
2022/03/09 00:58:26;;;;;;;;;2.00;2.00;;;;;-1.87;100.00;101345.53;3725163;37;20231;-64
2022/03/09 01:00:59;;;;;;;;;2.00;1.00;;;;;-1.92;100.00;101334.31;3724716;38;20000;-64
2022/03/09 01:03:29;;;;;;;;;3.25;3.00;;;;;-1.96;100.00;101330.12;3724990;38;20076;-64
2022/03/09 01:05:56;;;;;;;;;2.75;2.50;;;;;-1.97;100.00;101323.09;3725371;37;20309;-65
2022/03/09 01:08:29;;;;;;;;;4.00;4.00;;;;;-2.11;100.00;101316.78;3725409;37;20256;-64
2022/03/09 01:11:03;;;;;;;;;1.25;1.25;;;;;-2.03;100.00;101334.91;3725380;38;19937;-65
2022/03/09 01:13:31;;;;;;;;;3.00;3.00;;;;;-2.05;100.00;101334.97;3725113;38;19970;-65
2022/03/09 01:15:58;;;;;;;;;3.00;3.00;;;;;-2.12;100.00;101338.94;3725404;37;19979;-65
2022/03/09 01:18:25;;;;;;;;;2.00;2.00;;;;;-2.11;100.00;101340.66;3725497;38;20238;-63
2022/03/09 01:20:53;;;;;;;;;4.00;4.00;;;;;-2.17;100.00;101330.38;3725651;37;19824;-66
2022/03/09 01:23:25;;;;;;;;;3.00;3.00;;;;;-2.20;100.00;101337.66;3725024;37;19834;-66
2022/03/09 01:25:54;;;;;;;;;3.50;3.00;;;;;-2.24;100.00;101341.41;3725264;38;19841;-65
2022/03/09 01:28:22;;;;;;;;;3.25;3.25;;;;;-2.26;100.00;101351.22;3725037;37;19939;-62
2022/03/09 01:30:52;;;;;;;;;0.75;0.75;;;;;-2.36;100.00;101333.16;3725056;37;20134;-65
2022/03/09 01:33:20;;;;;;;;;4.50;3.00;;;;;-2.41;100.00;101329.91;3725406;37;20072;-65
2022/03/09 01:35:50;;;;;;;;;2.00;2.00;;;;;-2.31;100.00;101346.16;3725114;38;19881;-64
2022/03/09 01:38:22;;;;;;;;;2.50;2.50;;;;;-2.34;100.00;101355.16;3724986;37;19812;-65
2022/03/09 01:40:50;;;;;;;;;4.00;4.00;;;;;-2.39;100.00;101343.94;3725571;37;19845;-64
2022/03/09 01:43:20;;;;;;;;;3.00;3.00;;;;;-2.44;100.00;101340.66;3725157;38;20072;-65
2022/03/09 01:45:48;;;;;;;;;2.25;2.25;;;;;-2.49;100.00;101352.44;3725198;37;19799;-66
2022/03/09 01:48:18;;;;;;;;;4.00;3.00;;;;;-2.59;100.00;101341.47;3725161;37;19876;-65
2022/03/09 01:50:47;;;;;;;;;3.75;3.00;;;;;-2.72;100.00;101357.19;3725136;37;19936;-64
2022/03/09 01:53:19;;;;;;;;;3.00;3.00;;;;;-2.83;100.00;101351.56;3725318;37;19951;-64
2022/03/09 01:55:46;;;;;;;;;2.00;2.00;;;;;-2.94;100.00;101353.06;3725282;37;19793;-65
2022/03/09 01:58:14;;;;;;;;;3.75;2.25;;;;;-3.14;100.00;101324.97;3725471;37;19835;-65
2022/03/09 02:00:42;;;;;;;;;3.50;3.50;;;;;-3.05;100.00;101350.94;3725207;38;19869;-64
2022/03/09 02:03:16;;;;;;;;;3.00;2.50;;;;;-3.22;100.00;101346.53;3725262;37;19795;-64
2022/03/09 02:05:43;;;;;;;;;2.50;2.50;;;;;-3.17;100.00;101359.53;3725266;37;20192;-65
2022/03/09 02:11:01;;;;;;;;;3.00;3.00;;;;;-3.33;100.00;101349.69;3725143;37;19776;-65
2022/03/09 02:13:28;;;;;;;;;9.50;9.00;;;;;-3.48;100.00;101331.91;3725558;37;19858;-66
2022/03/09 02:16:02;;;;;;;;;18.75;18.75;;;;;-3.42;100.00;101351.94;3725554;38;19931;-66
2022/03/09 02:18:30;;;;;;;;;9.75;9.00;;;;;-3.36;100.00;101363.06;3725166;37;20236;-66
2022/03/09 02:21:02;;;;;;;;;9.00;8.00;;;;;-3.55;100.00;101327.84;3725221;38;19889;-64
2022/03/09 02:23:31;;;;;;;;;10.50;9.75;;;;;-3.45;100.00;101354.72;3725260;38;19819;-63
2022/03/09 02:26:02;;;;;;;;;39.25;33.50;;;;;-3.50;100.00;101357.59;3725190;37;19797;-64
2022/03/09 02:28:38;;;;;;;;;20.50;17.00;;;;;-3.52;100.00;101364.75;3725515;37;19860;-64
2022/03/09 02:33:38;;;;;;;;;18.00;16.25;;;;;-3.62;100.00;101350.25;3725309;37;19936;-64
2022/03/09 02:36:08;;;;;;;;;7.25;6.75;;;;;-3.52;100.00;101363.91;3725161;38;20009;-65
2022/03/09 02:38:35;;;;;;;;;10.25;8.75;;;;;-3.52;100.00;101358.59;3724994;38;20154;-66
2022/03/09 02:41:03;;;;;;;;;1.00;1.00;;;;;-3.54;100.00;101373.69;3725077;38;20179;-65
2022/03/09 02:43:33;;;;;;;;;5.50;4.75;;;;;-3.52;100.00;101370.03;3725245;38;19728;-65
2022/03/09 02:46:02;;;;;;;;;3.50;3.50;;;;;-3.54;100.00;101371.03;3725512;37;20111;-66
2022/03/09 02:48:30;;;;;;;;;2.00;2.00;;;;;-3.43;100.00;101379.31;3725143;38;19727;-64
2022/03/09 02:51:04;;;;;;;;;2.00;1.00;;;;;-3.51;100.00;101365.59;3725386;37;19713;-66
2022/03/09 02:53:39;;;;;;;;;3.00;3.00;;;;;-3.44;100.00;101367.03;3725233;37;20060;-64
2022/03/09 02:56:07;;;;;;;;;1.00;1.00;;;;;-3.44;100.00;101369.69;3725432;38;20149;-65
2022/03/09 02:58:37;;;;;;;;;4.00;4.00;;;;;-3.49;100.00;101364.59;3725186;38;19902;-66
2022/03/09 03:01:09;;;;;;;;;4.00;4.00;;;;;-3.55;100.00;101354.31;3725293;38;19990;-67
2022/03/09 03:03:36;;;;;;;;;2.75;2.75;;;;;-3.59;100.00;101354.53;3725583;37;19932;-67
2022/03/09 03:06:04;;;;;;;;;2.75;2.75;;;;;-3.44;100.00;101377.62;3725455;38;19905;-67
2022/03/09 03:08:33;;;;;;;;;3.00;3.00;;;;;-3.46;100.00;101382.97;3725273;37;20054;-68
2022/03/09 03:11:03;;;;;;;;;3.00;2.50;;;;;-3.59;100.00;101363.34;3725496;37;20138;-67
2022/03/09 03:13:42;;;;;;;;;3.25;3.00;;;;;-3.47;100.00;101393.63;3725304;37;20031;-67
2022/03/09 03:16:11;;;;;;;;;2.00;2.00;;;;;-3.45;100.00;101387.34;3725399;37;20048;-67
2022/03/09 03:18:40;;;;;;;;;3.50;2.75;;;;;-3.45;100.00;101397.94;3725610;38;19771;-67
2022/03/09 03:21:15;;;;;;;;;4.00;4.00;;;;;-3.42;100.00;101391.62;3725382;37;19799;-67
2022/03/09 03:23:42;;;;;;;;;7.25;5.50;;;;;-3.43;100.00;101393.41;3725950;37;19675;-67
2022/03/09 03:26:17;;;;;;;;;5.25;4.00;;;;;-3.41;100.00;101401.28;3726059;37;19671;-68
2022/03/09 03:28:46;;;;;;;;;5.50;4.50;;;;;-3.43;100.00;101398.72;3730082;37;19732;-67
2022/03/09 03:31:14;;;;;;;;;6.25;6.25;;;;;-3.45;100.00;101411.16;3726886;38;20003;-66
2022/03/09 03:33:51;;;;;;;;;3.50;3.50;;;;;-3.50;100.00;101396.44;3725388;37;19772;-69
2022/03/09 03:36:23;;;;;;;;;3.50;3.50;;;;;-3.67;100.00;101371.66;3725309;38;19721;-67
2022/03/09 03:38:56;;;;;;;;;7.75;5.25;;;;;-3.53;100.00;101400.06;3725700;38;19661;-67
2022/03/09 03:41:27;;;;;;;;;5.75;5.75;;;;;-3.48;100.00;101399.84;3725844;37;19862;-68
2022/03/09 03:43:57;;;;;;;;;7.50;7.50;;;;;-3.46;100.00;101395.34;3725321;37;20076;-64
2022/03/09 03:46:30;;;;;;;;;15.75;14.75;;;;;-3.52;100.00;101401.78;3725080;38;19766;-60
2022/03/09 03:49:01;;;;;;;;;5.75;5.75;;;;;-3.62;100.00;101395.22;3725065;38;19731;-67
2022/03/09 03:51:29;;;;;;;;;5.00;5.00;;;;;-3.48;100.00;101410.44;3725376;37;19794;-66
2022/03/09 03:53:58;;;;;;;;;4.50;3.00;;;;;-3.42;100.00;101412.78;3725205;37;20077;-67
2022/03/09 03:56:28;;;;;;;;;5.25;4.25;;;;;-3.46;100.00;101413.88;3725656;38;20042;-66
2022/03/09 03:58:58;;;;;;;;;4.75;4.75;;;;;-3.50;100.00;101420.25;3725496;37;20030;-66
2022/03/09 04:01:27;;;;;;;;;5.25;4.00;;;;;-3.52;100.00;101424.75;3724919;37;19941;-65
2022/03/09 04:03:58;;;;;;;;;5.50;5.00;;;;;-3.63;100.00;101398.78;3725539;38;19647;-71
2022/03/09 04:06:25;;;;;;;;;10.00;9.00;;;;;-3.52;100.00;101419.47;3725831;37;19637;-68
2022/03/09 04:08:56;;;;;;;;;12.25;11.00;;;;;-3.49;100.00;101416.66;3725511;37;19664;-68
2022/03/09 04:11:24;;;;;;;;;8.25;7.75;;;;;-3.57;100.00;101437.34;3725428;37;20747;-69
2022/03/09 04:13:54;;;;;;;;;8.75;8.75;;;;;-3.65;100.00;101432.44;3725323;37;19697;-70
2022/03/09 04:16:23;;;;;;;;;8.50;7.75;;;;;-3.69;100.00;101441.44;3725270;37;19718;-71
2022/03/09 04:18:51;;;;;;;;;9.25;8.50;;;;;-3.74;100.00;101427.56;3725839;37;21037;-69
2022/03/09 04:21:20;;;;;;;;;9.25;7.75;;;;;-4.03;100.00;101398.03;3725472;37;20724;-71
2022/03/09 04:23:52;;;;;;;;;10.00;9.00;;;;;-3.91;100.00;101419.53;3725578;38;20723;-70
2022/03/09 04:26:23;;;;;;;;;7.50;4.25;;;;;-3.84;100.00;101445.62;3725491;37;19612;-71
2022/03/09 04:28:52;;;;;;;;;7.75;7.75;;;;;-3.90;100.00;101445.91;3725851;37;19603;-71
2022/03/09 04:31:22;;;;;;;;;5.00;5.00;;;;;-3.94;100.00;101452.28;3725759;38;20586;-70
2022/03/09 04:33:50;;;;;;;;;6.50;6.50;;;;;-3.94;100.00;101446.13;3725745;37;20717;-66
2022/03/09 04:36:20;;;;;;;;;10.00;9.50;;;;;-3.93;100.00;101443.41;3725242;38;20834;-69
2022/03/09 04:38:52;;;;;;;;;7.75;7.75;;;;;-3.88;100.00;101456.44;3725701;38;20683;-70
2022/03/09 04:41:25;;;;;;;;;2.75;2.75;;;;;-4.01;100.00;101440.25;3725365;38;21156;-69
2022/03/09 04:43:55;;;;;;;;;7.00;7.00;;;;;-4.17;100.00;101408.41;3725212;37;20589;-72
2022/03/09 04:46:22;;;;;;;;;7.75;7.75;;;;;-3.92;100.00;101452.19;3726358;38;20591;-68
2022/03/09 04:49:02;;;;;;;;;11.75;9.50;;;;;-3.94;100.00;101451.41;3726734;38;20584;-71
2022/03/09 04:51:43;;;;;;;;;9.00;9.00;;;;;-3.87;100.00;101469.59;3726118;37;21017;-70
2022/03/09 04:54:11;;;;;;;;;7.75;7.50;;;;;-3.85;100.00;101467.72;3725991;38;20974;-70
2022/03/09 04:56:40;;;;;;;;;8.25;8.00;;;;;-3.86;100.00;101475.72;3725775;37;20871;-72
2022/03/09 04:59:08;;;;;;;;;11.25;10.00;;;;;-4.04;100.00;101433.31;3726282;38;20638;-72
2022/03/09 05:01:35;;;;;;;;;5.50;5.50;;;;;-3.97;100.00;101448.91;3725983;37;20579;-71
2022/03/09 05:04:03;;;;;;;;;13.75;12.00;;;;;-3.80;100.00;101483.38;3725762;37;20842;-73
2022/03/09 05:06:35;;;;;;;;;10.50;9.00;;;;;-3.80;100.00;101493.97;3725458;37;20629;-71
2022/03/09 05:09:11;;;;;;;;;13.00;13.00;;;;;-3.85;100.00;101493.31;3725560;38;20922;-72
2022/03/09 05:11:39;;;;;;;;;26.50;23.50;;;;;-3.84;100.00;101492.38;3725433;38;20587;-73
2022/03/09 05:14:12;;;;;;;;;19.00;16.50;;;;;-4.18;100.00;101421.69;3725352;37;20655;-72
2022/03/09 05:16:41;;;;;;;;;18.75;16.75;;;;;-3.72;100.00;101492.69;3725187;38;21077;-70
2022/03/09 05:19:09;;;;;;;;;13.75;12.00;;;;;-3.71;100.00;101507.63;3725885;38;20939;-69
2022/03/09 05:21:38;;;;;;;;;16.00;14.00;;;;;-3.60;100.00;101517.69;3725936;37;20940;-68
2022/03/09 05:24:07;;;;;;;;;8.00;7.25;;;;;-3.73;100.00;101509.50;3725884;38;20560;-71
2022/03/09 05:26:47;;;;;;;;;7.00;7.00;;;;;-3.89;100.00;101476.72;3725220;37;20943;-69
2022/03/09 05:29:15;;;;;;;;;11.75;8.25;;;;;-3.70;100.00;101525.22;3725241;37;20906;-70
2022/03/09 05:31:45;;;;;;;;;8.50;8.25;;;;;-3.76;100.00;101499.06;3725773;37;20942;-75
2022/03/09 05:34:13;;;;;;;;;11.25;11.00;;;;;-3.80;100.00;101492.19;3726086;37;20883;-70
2022/03/09 05:36:41;;;;;;;;;11.50;10.00;;;;;-3.77;100.00;101486.75;3726357;37;20642;-70
2022/03/09 05:39:09;;;;;;;;;10.00;10.00;;;;;-3.66;100.00;101520.66;3726035;37;20980;-69
2022/03/09 05:41:40;;;;;;;;;10.00;10.00;;;;;-3.57;100.00;101549.31;3726181;37;20521;-72
2022/03/09 05:44:12;;;;;;;;;10.50;9.75;;;;;-3.60;100.00;101541.50;3725813;37;20899;-72
2022/03/09 05:46:41;;;;;;;;;7.00;7.00;;;;;-3.51;100.00;101558.75;3725981;38;20908;-71
2022/03/09 05:49:09;;;;;;;;;10.00;8.00;;;;;-3.70;100.00;101512.00;3725551;38;20490;-70
2022/03/09 05:51:37;;;;;;;;;10.75;10.00;;;;;-3.50;100.00;101558.69;3726092;37;20768;-71
2022/03/09 05:54:05;;;;;;;;;9.00;9.00;;;;;-3.42;100.00;101561.00;3725619;38;20769;-71
2022/03/09 05:56:33;;;;;;;;;13.00;11.00;;;;;-3.35;100.00;101543.91;3725798;38;20537;-74
2022/03/09 05:59:00;;;;;;;;;11.00;10.00;;;;;-3.38;100.00;101544.03;3725947;38;20541;-74
2022/03/09 06:01:28;;;;;;;;;10.50;10.50;;;;;-3.41;100.00;101578.59;3726505;38;20902;-70
2022/03/09 06:04:01;;;;;;;;;9.50;8.50;;;;;-3.45;100.00;101569.94;3726262;37;20708;-71
2022/03/09 06:06:33;;;;;;;;;10.50;10.00;;;;;-3.44;100.00;101568.16;3730132;38;20921;-77
2022/03/09 06:09:07;;;;;;;;;14.00;11.25;;;;;-3.27;100.00;101559.44;3727748;37;20491;-75
2022/03/09 06:11:34;;;;;;;;;9.50;8.00;;;;;-3.23;100.00;101574.25;3725994;37;20978;-74
2022/03/09 06:14:02;;;;;;;;;9.00;9.00;;;;;-3.26;100.00;101567.31;3725809;37;20780;-70
2022/03/09 06:16:36;;;;;;;;;15.25;14.25;;;;;-3.09;100.00;101570.00;3726269;38;20485;-70
2022/03/09 06:19:03;;;;;;;;;14.00;13.25;;;;;-3.06;100.00;101572.50;3725763;37;20525;-72
2022/03/09 06:21:31;;;;;;;;;10.25;9.75;;;;;-3.01;100.00;101577.59;3726115;37;20871;-67
2022/03/09 06:24:02;;;;;;;;;8.00;6.75;;;;;-3.12;100.00;101572.78;3725241;38;20496;-65
2022/03/09 06:26:31;;;;;;;;;11.00;8.25;;;;;-2.97;100.00;101579.16;3725740;37;20559;-62
2022/03/09 06:29:01;;;;;;;;;12.50;12.50;;;;;-2.89;100.00;101582.31;3724166;37;20502;-63
2022/03/09 06:31:31;;;;;;;;;7.00;7.00;;;;;-2.94;100.00;101589.63;3724140;38;20905;-64
2022/03/09 06:34:03;;;;;;;;;11.25;10.75;;;;;-3.14;100.00;101587.06;3724466;38;20552;-62
2022/03/09 06:36:36;;;;;;;;;11.50;11.25;;;;;-3.18;100.00;101588.12;3724785;37;20818;-64
2022/03/09 06:39:07;;;;;;;;;11.00;10.00;;;;;-3.15;100.00;101586.22;3724100;38;20568;-63
2022/03/09 06:41:36;;;;;;;;;6.00;5.75;;;;;-3.23;100.00;101585.69;3724689;38;20537;-61
2022/03/09 06:44:04;;;;;;;;;13.75;11.50;;;;;-3.50;100.00;101563.13;3725347;37;20794;-66
2022/03/09 06:46:32;;;;;;;;;13.75;12.50;;;;;-3.15;100.00;101585.34;3724846;38;20469;-64
2022/03/09 06:49:01;;;;;;;;;15.50;14.50;;;;;-3.28;100.00;101598.28;3725056;38;20676;-68
2022/03/09 06:51:28;;;;;;;;;11.00;11.00;;;;;-3.46;100.00;101580.59;3724926;38;20449;-65
2022/03/09 06:53:57;;;;;;;;;16.00;13.75;;;;;-3.41;100.00;101574.16;3725135;38;20877;-63
2022/03/09 06:56:26;;;;;;;;;14.00;12.75;;;;;-3.25;100.00;101594.62;3724897;37;20475;-64
2022/03/09 06:58:54;;;;;;;;;13.75;12.00;;;;;-3.28;100.00;101605.38;3725387;38;20485;-65
2022/03/09 07:01:21;;;;;;;;;19.50;15.00;;;;;-3.30;100.00;101612.53;3725245;37;20898;-63
2022/03/09 07:03:52;;;;;;;;;15.50;11.25;;;;;-3.42;100.00;101614.78;3725800;37;20735;-63
2022/03/09 07:06:22;;;;;;;;;3.50;2.25;;;;;-3.27;100.00;101645.00;3725743;38;20447;-68
2022/03/09 07:08:53;;;;;;;;;9.00;8.00;;;;;-3.27;100.00;101628.25;3725518;37;20418;-64
2022/03/09 07:11:30;;;;;;;;;11.75;10.50;;;;;-3.28;100.00;101638.00;3724987;37;20473;-67
2022/03/09 07:14:00;;;;;;;;;10.00;10.00;;;;;-3.30;100.00;101634.56;3724718;38;20534;-65
2022/03/09 07:16:30;;;;;;;;;14.00;13.00;;;;;-3.25;100.00;101650.22;3724885;38;20728;-65
2022/03/09 07:18:57;;;;;;;;;14.50;14.50;;;;;-3.27;100.00;101637.06;3725131;38;20408;-66
2022/03/09 07:21:25;;;;;;;;;14.75;12.75;;;;;-3.39;100.00;101619.09;3725152;38;20517;-66
2022/03/09 07:23:52;;;;;;;;;18.75;17.00;;;;;-3.31;100.00;101605.50;3725042;38;20826;-68
2022/03/09 07:26:22;;;;;;;;;19.25;18.50;;;;;-3.18;100.00;101633.16;3724845;38;20571;-66
2022/03/09 07:28:51;;;;;;;;;14.75;12.50;;;;;-3.07;100.00;101636.13;3724786;38;20458;-64
2022/03/09 07:31:19;;;;;;;;;17.75;17.75;;;;;-2.87;100.00;101629.91;3725236;38;20475;-65
2022/03/09 07:33:47;;;;;;;;;16.75;15.75;;;;;-3.15;100.00;101612.69;3725767;37;20446;-67
2022/03/09 07:36:14;;;;;;;;;9.50;8.75;;;;;-2.90;100.00;101622.12;3725461;38;20848;-65
2022/03/09 07:38:49;;;;;;;;;5.50;5.50;;;;;-2.79;100.00;101614.53;3725747;38;20499;-65
2022/03/09 07:41:23;;;;;;;;;18.25;16.50;;;;;-2.71;100.00;101623.84;3725782;37;20376;-74
2022/03/09 07:43:51;;;;;;;;;15.75;14.75;;;;;-2.57;100.00;101627.59;3725461;38;20756;-71
2022/03/09 07:46:18;;;;;;;;;17.00;16.25;;;;;-2.58;100.00;101644.41;3725530;38;20793;-64
2022/03/09 07:48:46;;;;;;;;;16.50;16.50;;;;;-2.59;100.00;101640.06;3725665;38;20685;-66
2022/03/09 07:51:16;;;;;;;;;14.25;14.25;;;;;-2.57;100.00;101632.88;3725382;37;20504;-64
2022/03/09 07:53:44;;;;;;;;;17.00;17.00;;;;;-2.46;100.00;101610.25;3725261;38;20761;-65
2022/03/09 07:56:15;;;;;;;;;16.75;16.00;;;;;-2.56;100.00;101629.31;3725150;37;20583;-63
2022/03/09 07:58:44;;;;;;;;;17.50;16.25;;;;;-2.56;100.00;101638.13;3724985;38;20386;-64
2022/03/09 08:01:14;;;;;;;;;18.75;15.25;;;;;-2.49;100.00;101631.59;3725550;37;20623;-64
2022/03/09 08:03:45;;;;;;;;;19.25;16.25;;;;;-2.36;100.00;101639.81;3725593;38;20758;-64
2022/03/09 08:06:12;;;;;;;;;24.50;23.25;;;;;-2.34;100.00;101640.59;3725374;38;20533;-63
2022/03/09 08:08:44;;;;;;;;;20.25;20.25;;;;;-2.40;100.00;101615.25;3726125;37;20412;-65
2022/03/09 08:11:14;;;;;;;;;11.00;10.75;;;;;-2.37;100.00;101635.44;3725297;37;20775;-64
2022/03/09 08:13:42;;;;;;;;;11.00;10.75;;;;;-2.33;100.00;101635.22;3725153;37;20329;-63
2022/03/09 08:16:10;;;;;;;;;11.00;9.75;;;;;-2.48;100.00;101630.66;3725683;37;20394;-63
2022/03/09 08:18:39;;;;;;;;;18.25;16.25;;;;;-2.50;100.00;101639.63;3725649;38;20566;-64
2022/03/09 08:21:11;;;;;;;;;18.75;16.75;;;;;-2.44;100.00;101653.44;3725425;37;20453;-63
2022/03/09 08:23:39;;;;;;;;;20.50;20.25;;;;;-2.43;100.00;101622.50;3725617;37;20358;-64
2022/03/09 08:26:09;;;;;;;;;14.50;14.00;;;;;-2.51;100.00;101622.84;3725575;37;20770;-64
2022/03/09 08:28:42;;;;;;;;;13.00;11.75;;;;;-2.56;100.00;101638.13;3725203;38;20348;-62
2022/03/09 08:31:12;;;;;;;;;12.00;12.00;;;;;-2.46;100.00;101649.12;3725204;37;20720;-65
2022/03/09 08:33:42;;;;;;;;;14.00;14.00;;;;;-2.36;100.00;101638.03;3725851;37;20348;-64
2022/03/09 08:36:14;;;;;;;;;17.75;16.00;;;;;-2.34;100.00;101617.59;3725622;38;20416;-64
2022/03/09 08:38:44;;;;;;;;;14.25;14.25;;;;;-2.05;100.00;101621.44;3725623;38;20312;-63
2022/03/09 08:41:12;;;;;;;;;14.00;14.00;;;;;-1.99;100.00;101630.88;3725338;37;20309;-65
2022/03/09 08:43:43;;;;;;;;;10.25;9.00;;;;;-1.95;100.00;101631.59;3728636;37;20319;-64
2022/03/09 08:46:13;;;;;;;;;10.00;10.00;;;;;-1.77;100.00;101655.41;3726753;37;20333;-65
2022/03/09 08:49:04;;;;;;;;;15.00;15.00;;;;;-1.55;100.00;101633.91;3725538;38;20365;-65
2022/03/09 08:51:32;;;;;;;;;17.75;17.00;;;;;-1.43;100.00;101614.66;3725262;38;20468;-64
2022/03/09 08:53:59;;;;;;;;;11.00;10.00;;;;;-0.96;100.00;101639.59;3725655;38;20338;-65
2022/03/09 08:56:32;;;;;;;;;15.25;14.00;;;;;-1.05;100.00;101641.84;3725135;38;20463;-65
2022/03/09 08:59:00;;;;;;;;;14.00;13.25;;;;;-0.93;100.00;101627.00;3725499;38;20292;-64
2022/03/09 09:01:27;;;;;;;;;9.00;8.00;;;;;-0.80;100.00;101670.59;3725529;37;20666;-65
2022/03/09 09:03:55;;;;;;;;;7.25;7.25;;;;;-0.78;100.00;101646.59;3725582;37;20660;-64
2022/03/09 09:06:26;;;;;;;;;13.75;13.00;;;;;-0.75;100.00;101646.41;3725700;37;20637;-66
2022/03/09 09:08:53;;;;;;;;;7.00;5.00;;;;;-1.08;100.00;101673.91;3725617;38;20737;-65
2022/03/09 09:11:24;;;;;;;;;9.75;9.00;;;;;-1.24;100.00;101649.09;3725212;38;20274;-64
2022/03/09 09:14:05;;;;;;;;;12.75;11.75;;;;;-1.06;100.00;101665.84;3725352;37;20585;-65
2022/03/09 09:16:35;;;;;;;;;12.25;11.25;;;;;-0.94;100.00;101627.09;3725384;38;20353;-64
2022/03/09 09:19:04;;;;;;;;;9.00;8.00;;;;;-0.75;100.00;101649.94;3725197;38;20381;-63
2022/03/09 09:21:34;;;;;;;;;13.00;11.00;;;;;-0.55;100.00;101653.28;3725554;38;20524;-64
2022/03/09 09:24:02;;;;;;;;;8.50;6.75;;;;;-0.49;100.00;101639.63;3725614;38;20591;-63
2022/03/09 09:26:31;;;;;;;;;14.00;14.00;;;;;-0.52;100.00;101638.00;3725686;37;20300;-65
2022/03/09 09:29:00;;;;;;;;;12.25;12.00;;;;;-0.64;100.00;101633.37;3725472;37;20305;-65
2022/03/09 09:31:27;;;;;;;;;8.00;6.25;;;;;-0.47;100.00;101630.63;3725123;38;20216;-63
2022/03/09 09:33:55;;;;;;;;;11.75;11.75;;;;;-0.35;100.00;101637.03;3725284;38;20627;-64
2022/03/09 09:36:23;;;;;;;;;10.50;10.50;;;;;-0.41;100.00;101626.75;3725189;38;20227;-63
2022/03/09 09:38:52;;;;;;;;;10.00;10.00;;;;;-0.39;100.00;101633.69;3725618;37;20315;-64
2022/03/09 09:41:24;;;;;;;;;11.50;11.00;;;;;-0.37;100.00;101638.94;3724883;38;20284;-65
2022/03/09 09:43:52;;;;;;;;;12.50;12.00;;;;;-0.48;100.00;101604.13;3725678;37;20209;-65
2022/03/09 09:46:19;;;;;;;;;9.00;7.75;;;;;-0.16;100.00;101623.56;3725617;38;20193;-61
2022/03/09 09:48:48;;;;;;;;;7.00;7.00;;;;;-0.11;100.00;101606.37;3725428;37;20193;-63
2022/03/09 09:51:16;;;;;;;;;11.00;9.00;;;;;-0.01;100.00;101617.34;3725822;38;20484;-61
2022/03/09 09:53:47;;;;;;;;;7.75;7.75;;;;;0.20;100.00;101610.72;3725759;38;20541;-62
2022/03/09 09:56:17;;;;;;;;;0.00;0.00;;;;;0.25;100.00;101618.44;3725343;37;20477;-62
2022/03/09 09:58:46;;;;;;;;;9.00;8.00;;;;;0.18;100.00;101609.97;3725216;37;20167;-62
2022/03/09 10:01:15;;;;;;;;;7.50;5.75;;;;;0.42;100.00;101615.63;3725787;37;20455;-62
2022/03/09 10:03:42;;;;;;;;;5.00;5.00;;;;;0.39;100.00;101597.16;3725617;37;20448;-64
2022/03/09 10:06:11;;;;;;;;;9.25;8.75;;;;;0.37;100.00;101595.56;3725737;38;20178;-62
2022/03/09 10:08:39;;;;;;;;;3.00;1.25;;;;;0.35;100.00;101608.97;3725296;38;20300;-63
2022/03/09 10:11:07;;;;;;;;;7.00;7.00;;;;;0.33;100.00;101618.84;3725312;38;20141;-63
2022/03/09 10:13:40;;;;;;;;;13.50;10.50;;;;;0.52;100.00;101614.09;3725583;38;20219;-63
2022/03/09 10:16:20;;;;;;;;;5.75;5.00;;;;;0.60;100.00;101640.25;3725557;38;20608;-61
2022/03/09 10:19:06;;;;;;;;;5.50;5.50;;;;;0.27;100.00;101617.41;3725682;38;20145;-60
2022/03/09 10:21:40;;;;;;;;;12.25;11.25;;;;;0.21;100.00;101611.59;3725342;37;20379;-61
2022/03/09 10:24:11;;;;;;;;;6.25;5.00;;;;;0.11;100.00;101627.25;3725235;38;20513;-63
2022/03/09 10:26:49;;;;;;;;;8.50;8.00;;;;;0.49;100.00;101608.97;3725561;38;20128;-61
2022/03/09 10:29:20;;;;;;;;;4.25;4.25;;;;;0.63;100.00;101614.31;3725809;38;20211;-61
2022/03/09 10:31:50;;;;;;;;;7.50;5.00;;;;;0.85;100.00;101608.50;3725159;38;20276;-61
2022/03/09 10:34:20;;;;;;;;;7.50;7.50;;;;;0.86;100.00;101622.69;3725072;37;20236;-61
2022/03/09 10:37:08;;;;;;;;;6.00;5.25;;;;;0.59;100.00;101611.91;3725183;37;20094;-62
2022/03/09 10:39:39;;;;;;;;;6.75;6.75;;;;;0.64;100.00;101602.69;3725264;38;20225;-60
2022/03/09 10:42:25;;;;;;;;;4.50;4.00;;;;;0.75;100.00;101602.03;3725295;37;20120;-62
2022/03/09 10:44:55;;;;;;;;;6.00;6.00;;;;;0.68;100.00;101595.38;3724702;37;20225;-60
2022/03/09 10:47:41;;;;;;;;;7.00;6.50;;;;;0.92;100.00;101588.53;3724696;37;20449;-61
2022/03/09 10:50:29;;;;;;;;;4.75;4.50;;;;;0.73;100.00;101576.44;3725205;37;20114;-61
2022/03/09 10:53:04;;;;;;;;;4.00;4.00;;;;;0.77;100.00;101593.94;3725473;38;20085;-62
2022/03/09 10:55:37;;;;;;;;;6.00;6.00;;;;;0.62;100.00;101595.75;3725845;38;20320;-62
2022/03/09 10:58:12;;;;;;;;;9.00;5.75;;;;;0.64;100.00;101588.53;3725359;37;20095;-62
2022/03/09 11:00:43;;;;;;;;;5.00;5.00;;;;;0.65;98.60;101590.22;3725449;38;20075;-62
2022/03/09 11:03:13;;;;;;;;;6.50;6.50;;;;;0.68;96.44;101599.84;3724811;38;20486;-62
2022/03/09 11:05:59;;;;;;;;;6.25;6.25;;;;;0.69;97.30;101573.09;3725409;38;20338;-62
2022/03/09 11:08:30;;;;;;;;;6.00;4.50;;;;;0.84;96.48;101576.63;3725831;37;20132;-62
2022/03/09 11:10:59;;;;;;;;;3.50;3.50;;;;;0.97;97.84;101577.56;3725513;38;20048;-62
2022/03/09 11:13:32;;;;;;;;;4.25;4.25;;;;;0.97;95.68;101577.56;3725410;37;20041;-62
2022/03/09 11:16:03;;;;;;;;;7.25;5.00;;;;;0.94;94.77;101580.44;3725808;37;20200;-61
2022/03/09 11:18:34;;;;;;;;;4.00;4.00;;;;;0.88;90.92;101587.00;3725390;37;20078;-62
2022/03/09 11:21:05;;;;;;;;;9.50;9.50;;;;;0.67;95.39;101593.66;3726813;38;20057;-62
2022/03/09 11:23:39;;;;;;;;;6.75;6.50;;;;;0.49;100.00;101587.69;3725730;38;20060;-65
2022/03/09 11:26:14;;;;;;;;;2.00;2.00;;;;;0.42;100.00;101585.47;3725725;38;20352;-62
2022/03/09 11:28:45;;;;;;;;;8.00;6.00;;;;;0.48;100.00;101582.44;3725146;37;20012;-62
2022/03/09 11:31:20;;;;;;;;;7.75;7.75;;;;;0.54;100.00;101592.69;3725635;37;20283;-63